createdAt,value
2019-03-13T00:01:54.426Z,4.28
2019-03-13T00:04:23.868Z,3.60
2019-03-13T00:06:53.411Z,3.30
2019-03-13T00:09:22.938Z,3.27
2019-03-13T00:11:52.424Z,3.30
2019-03-13T00:14:21.962Z,3.65
2019-03-13T00:16:51.467Z,4.47
2019-03-13T00:19:20.919Z,3.42
2019-03-13T00:21:50.480Z,3.87
2019-03-13T00:24:20.016Z,2.60
2019-03-13T00:26:50.122Z,2.58
2019-03-13T00:29:19.867Z,3.22
2019-03-13T00:31:49.364Z,3.95
2019-03-13T00:34:18.946Z,2.95
2019-03-13T00:36:48.368Z,2.70
2019-03-13T00:39:18.289Z,2.70
2019-03-13T00:41:47.753Z,2.98
2019-03-13T00:44:17.338Z,3.65
2019-03-13T00:46:46.842Z,2.90
2019-03-13T00:49:16.316Z,3.20
2019-03-13T00:51:45.792Z,3.42
2019-03-13T00:54:15.219Z,3.72
2019-03-13T00:56:44.659Z,3.55
2019-03-13T00:59:14.138Z,4.17
2019-03-13T01:01:53.456Z,3.70
2019-03-13T01:04:32.248Z,3.87
2019-03-13T01:07:04.226Z,3.90
2019-03-13T01:09:33.794Z,4.95
2019-03-13T01:12:04.486Z,5.60
2019-03-13T01:14:33.990Z,3.22
2019-03-13T01:17:03.455Z,4.20
2019-03-13T01:19:32.933Z,5.30
2019-03-13T01:22:02.359Z,5.65
2019-03-13T01:24:31.812Z,5.00
2019-03-13T01:27:01.712Z,4.60
2019-03-13T01:29:31.213Z,5.42
2019-03-13T01:32:22.539Z,5.55
2019-03-13T01:35:05.730Z,5.17
2019-03-13T01:37:35.212Z,5.55
2019-03-13T01:40:05.281Z,5.70
2019-03-13T01:42:34.791Z,5.35
2019-03-13T01:45:04.705Z,6.25
2019-03-13T01:47:34.181Z,6.72
2019-03-13T01:50:03.814Z,6.58
2019-03-13T01:52:33.254Z,6.33
2019-03-13T01:55:02.720Z,6.25
2019-03-13T01:57:32.162Z,6.75
2019-03-13T02:00:01.660Z,6.22
2019-03-13T02:02:31.151Z,6.37
2019-03-13T02:05:01.733Z,7.17
2019-03-13T02:07:31.286Z,7.33
2019-03-13T02:10:00.728Z,6.65
2019-03-13T02:12:30.558Z,6.58
2019-03-13T02:14:59.992Z,4.65
2019-03-13T02:17:29.512Z,6.97
2019-03-13T02:19:59.027Z,7.25
2019-03-13T02:22:28.692Z,6.85
2019-03-13T02:24:58.198Z,5.62
2019-03-13T02:27:27.726Z,6.85
2019-03-13T02:29:57.205Z,5.05
2019-03-13T02:32:26.698Z,6.37
2019-03-13T02:34:56.183Z,5.87
2019-03-13T02:37:25.617Z,5.90
2019-03-13T02:39:55.154Z,4.67
2019-03-13T02:42:24.678Z,5.47
2019-03-13T02:44:54.134Z,5.33
2019-03-13T02:47:23.687Z,5.70
2019-03-13T02:49:53.165Z,4.10
2019-03-13T02:52:22.640Z,4.25
2019-03-13T02:54:52.062Z,1.67
2019-03-13T02:57:21.549Z,4.25
2019-03-13T02:59:51.026Z,3.58
2019-03-13T03:02:37.367Z,3.55
2019-03-13T03:05:07.372Z,2.75
2019-03-13T03:07:36.827Z,3.37
2019-03-13T03:10:06.775Z,3.05
2019-03-13T03:12:36.302Z,3.33
2019-03-13T03:15:17.123Z,4.85
2019-03-13T03:17:46.664Z,3.42
2019-03-13T03:20:17.900Z,4.10
2019-03-13T03:22:47.376Z,2.50
2019-03-13T03:25:19.948Z,2.20
2019-03-13T03:27:49.484Z,2.80
2019-03-13T03:30:21.115Z,3.85
2019-03-13T03:32:50.713Z,2.58
2019-03-13T03:35:20.350Z,2.90
2019-03-13T03:37:49.813Z,2.87
2019-03-13T03:40:22.650Z,2.90
2019-03-13T03:42:50.765Z,2.50
2019-03-13T03:45:20.404Z,2.95
2019-03-13T03:47:49.915Z,3.67
2019-03-13T03:50:19.612Z,3.55
2019-03-13T03:52:49.118Z,3.05
2019-03-13T03:55:18.678Z,2.15
2019-03-13T03:57:48.159Z,2.75
2019-03-13T04:00:17.725Z,2.77
2019-03-13T04:02:47.223Z,2.20
2019-03-13T04:05:16.792Z,2.80
2019-03-13T04:07:46.362Z,3.33
2019-03-13T04:10:16.056Z,2.50
2019-03-13T04:12:45.694Z,3.45
2019-03-13T04:15:15.517Z,2.72
2019-03-13T04:17:45.162Z,4.00
2019-03-13T04:20:14.863Z,3.70
2019-03-13T04:22:44.565Z,2.80
2019-03-13T04:25:34.539Z,4.05
2019-03-13T04:28:04.433Z,2.75
2019-03-13T04:30:34.465Z,2.95
2019-03-13T04:33:03.953Z,4.60
2019-03-13T04:35:33.686Z,2.87
2019-03-13T04:38:03.180Z,2.98
2019-03-13T04:40:32.644Z,2.77
2019-03-13T04:43:02.171Z,5.28
2019-03-13T04:45:32.988Z,3.22
2019-03-13T04:48:02.603Z,2.55
2019-03-13T04:50:32.090Z,3.30
2019-03-13T04:53:01.666Z,2.90
2019-03-13T04:55:31.196Z,3.22
2019-03-13T04:58:01.499Z,3.25
2019-03-13T05:00:31.028Z,2.00
2019-03-13T05:03:00.605Z,2.35
2019-03-13T05:05:58.409Z,3.08
2019-03-13T05:08:57.247Z,3.62
2019-03-13T05:11:26.706Z,2.20
2019-03-13T05:13:56.430Z,2.47
2019-03-13T05:16:25.864Z,4.35
2019-03-13T05:18:55.354Z,2.60
2019-03-13T05:21:25.245Z,3.20
2019-03-13T05:23:54.851Z,2.17
2019-03-13T05:26:24.329Z,3.27
2019-03-13T05:28:53.833Z,3.35
2019-03-13T05:31:23.351Z,2.98
2019-03-13T05:33:52.884Z,3.00
2019-03-13T05:36:22.429Z,2.50
2019-03-13T05:38:51.812Z,2.77
2019-03-13T05:41:43.826Z,2.37
2019-03-13T05:44:13.374Z,3.10
2019-03-13T05:46:42.864Z,3.65
2019-03-13T05:49:12.327Z,3.65
2019-03-13T05:51:41.912Z,3.30
2019-03-13T05:54:11.414Z,2.75
2019-03-13T05:56:41.049Z,3.55
2019-03-13T05:59:10.679Z,3.80
2019-03-13T06:01:40.152Z,2.95
2019-03-13T06:04:09.664Z,2.90
2019-03-13T06:06:39.068Z,2.58
2019-03-13T06:09:08.970Z,3.05
2019-03-13T06:11:38.517Z,3.05
2019-03-13T06:14:07.970Z,2.98
2019-03-13T06:16:37.470Z,3.35
2019-03-13T06:19:07.012Z,2.15
2019-03-13T06:21:36.482Z,4.35
2019-03-13T06:24:06.077Z,3.05
2019-03-13T06:26:35.516Z,3.60
2019-03-13T06:29:05.020Z,3.02
2019-03-13T06:31:34.524Z,3.52
2019-03-13T06:34:04.097Z,3.00
2019-03-13T06:36:33.641Z,4.15
2019-03-13T06:39:03.854Z,2.80
2019-03-13T06:41:33.306Z,4.50
2019-03-13T06:44:02.914Z,4.15
2019-03-13T06:46:32.378Z,3.15
2019-03-13T06:49:01.831Z,3.15
2019-03-13T06:51:31.262Z,3.08
2019-03-13T06:54:00.738Z,3.65
2019-03-13T06:56:30.246Z,3.70
2019-03-13T06:59:22.681Z,4.05
2019-03-13T07:02:11.067Z,4.20
2019-03-13T07:04:59.466Z,3.65
2019-03-13T07:07:36.395Z,3.95
2019-03-13T07:10:19.213Z,2.47
2019-03-13T07:13:10.605Z,3.42
2019-03-13T07:15:47.647Z,3.17
2019-03-13T07:18:24.982Z,3.10
2019-03-13T07:21:10.539Z,3.02
2019-03-13T07:24:04.950Z,3.37
2019-03-13T07:26:42.171Z,6.08
2019-03-13T07:29:33.751Z,4.10
2019-03-13T07:32:28.336Z,3.87
2019-03-13T07:35:14.430Z,4.30
2019-03-13T07:38:02.863Z,3.37
2019-03-13T07:40:53.942Z,3.50
2019-03-13T07:43:40.737Z,4.12
2019-03-13T07:46:35.033Z,4.65
2019-03-13T07:49:38.535Z,3.17
2019-03-13T07:52:22.986Z,2.40
2019-03-13T07:55:14.696Z,3.17
2019-03-13T07:58:09.256Z,3.47
2019-03-13T08:01:06.818Z,3.65
2019-03-13T08:03:50.787Z,4.53
2019-03-13T08:06:40.586Z,3.98
2019-03-13T08:09:26.812Z,3.00
2019-03-13T08:12:14.934Z,3.12
2019-03-13T08:15:01.260Z,3.22
2019-03-13T08:17:41.801Z,5.55
2019-03-13T08:20:42.148Z,3.10
2019-03-13T08:23:36.634Z,4.20
2019-03-13T08:26:17.160Z,3.80
2019-03-13T08:29:20.778Z,2.67
2019-03-13T08:32:06.486Z,2.90
2019-03-13T08:34:58.108Z,2.85
2019-03-13T08:37:45.898Z,4.12
2019-03-13T08:40:37.204Z,4.25
2019-03-13T08:43:23.946Z,3.25
2019-03-13T08:46:12.854Z,3.08
2019-03-13T08:48:52.143Z,2.67
2019-03-13T08:51:52.649Z,3.52
2019-03-13T08:54:36.802Z,3.42
2019-03-13T08:57:43.539Z,5.37
2019-03-13T09:00:41.320Z,3.15
2019-03-13T09:03:32.357Z,3.30
2019-03-13T09:06:12.516Z,3.52
2019-03-13T09:09:00.038Z,3.70
2019-03-13T09:11:48.718Z,3.77
2019-03-13T09:14:40.011Z,4.22
2019-03-13T09:17:49.081Z,3.47
2019-03-13T09:20:27.205Z,2.12
2019-03-13T09:23:14.344Z,3.60
2019-03-13T09:26:01.363Z,3.17
2019-03-13T09:28:41.512Z,3.35
2019-03-13T09:31:26.869Z,2.35
2019-03-13T09:34:09.331Z,4.53
2019-03-13T09:36:57.883Z,6.08
2019-03-13T09:39:45.433Z,3.35
2019-03-13T09:42:42.933Z,3.62
2019-03-13T09:45:29.746Z,3.00
2019-03-13T09:48:13.826Z,4.45
2019-03-13T09:50:49.126Z,4.60
2019-03-13T09:53:26.571Z,3.65
2019-03-13T09:56:04.424Z,3.92
2019-03-13T09:58:42.725Z,2.92
2019-03-13T10:01:43.182Z,3.67
2019-03-13T10:04:37.773Z,3.85
2019-03-13T10:07:17.775Z,3.37
2019-03-13T10:10:06.226Z,3.00
2019-03-13T10:12:57.392Z,3.60
2019-03-13T10:15:35.197Z,3.47
2019-03-13T10:18:16.962Z,3.47
2019-03-13T10:20:57.394Z,3.30
2019-03-13T10:23:57.797Z,3.30
2019-03-13T10:26:43.235Z,3.60
2019-03-13T10:29:35.991Z,3.80
2019-03-13T10:32:36.574Z,3.45
2019-03-13T10:35:43.055Z,4.03
2019-03-13T10:38:31.656Z,3.85
2019-03-13T10:41:20.224Z,2.80
2019-03-13T10:44:17.374Z,3.37
2019-03-13T10:46:55.052Z,2.50
2019-03-13T10:49:55.515Z,2.52
2019-03-13T10:52:46.727Z,3.37
2019-03-13T10:55:29.895Z,3.75
2019-03-13T10:58:06.225Z,3.70
2019-03-13T11:00:40.752Z,3.25
2019-03-13T11:03:32.399Z,2.40
2019-03-13T11:06:13.896Z,2.95
2019-03-13T11:09:07.521Z,2.70
2019-03-13T11:12:02.254Z,4.33
2019-03-13T11:14:41.369Z,5.20
2019-03-13T11:17:21.879Z,3.42
2019-03-13T11:20:01.010Z,4.00
2019-03-13T11:22:52.631Z,3.42
2019-03-13T11:25:56.441Z,3.52
2019-03-13T11:28:45.065Z,4.05
2019-03-13T11:31:32.170Z,4.17
2019-03-13T11:34:20.793Z,5.05
2019-03-13T11:37:21.824Z,3.22
2019-03-13T11:40:13.601Z,3.92
2019-03-13T11:42:57.509Z,4.33
2019-03-13T11:45:44.515Z,3.52
2019-03-13T11:48:31.542Z,4.50
2019-03-13T11:51:19.158Z,3.50
2019-03-13T11:54:07.619Z,3.60
2019-03-13T11:57:01.774Z,5.40
2019-03-13T11:59:53.196Z,5.33
2019-03-13T12:02:41.880Z,3.52
2019-03-13T12:05:25.262Z,3.80
2019-03-13T12:08:02.440Z,4.08
2019-03-13T12:10:40.610Z,3.37
2019-03-13T12:13:35.069Z,3.87
2019-03-13T12:16:29.558Z,3.35
2019-03-13T12:19:07.576Z,3.10
2019-03-13T12:21:45.183Z,5.10
2019-03-13T12:24:32.471Z,3.10
2019-03-13T12:27:16.375Z,3.67
2019-03-13T12:30:10.772Z,4.58
2019-03-13T12:33:06.584Z,2.90
2019-03-13T12:36:01.258Z,4.30
2019-03-13T12:38:42.566Z,3.27
2019-03-13T12:41:31.279Z,4.28
2019-03-13T12:44:22.508Z,2.72
2019-03-13T12:47:08.572Z,3.90
2019-03-13T12:49:55.619Z,3.33
2019-03-13T12:52:54.083Z,3.60
2019-03-13T12:55:32.180Z,5.25
2019-03-13T12:58:21.111Z,4.03
2019-03-13T13:01:09.583Z,4.10
2019-03-13T13:03:58.355Z,2.35
2019-03-13T13:06:34.697Z,3.85
2019-03-13T13:09:25.376Z,4.12
2019-03-13T13:12:20.003Z,3.80
2019-03-13T13:15:14.388Z,3.75
2019-03-13T13:17:58.251Z,3.00
2019-03-13T13:20:28.125Z,2.25
2019-03-13T13:22:57.588Z,3.20
2019-03-13T13:25:27.447Z,2.60
2019-03-13T13:27:57.087Z,2.72
2019-03-13T13:30:27.207Z,1.90
2019-03-13T13:32:56.970Z,1.45
2019-03-13T13:35:26.912Z,1.87
2019-03-13T13:37:56.547Z,2.02
2019-03-13T13:40:26.159Z,2.62
2019-03-13T13:42:55.624Z,1.80
2019-03-13T13:46:18.524Z,2.75
2019-03-13T13:48:48.193Z,2.25
2019-03-13T13:51:18.031Z,3.02
2019-03-13T13:53:47.840Z,1.35
2019-03-13T13:56:17.965Z,2.25
2019-03-13T13:58:47.715Z,2.40
2019-03-13T14:01:17.346Z,2.20
2019-03-13T14:03:46.929Z,2.25
2019-03-13T14:06:17.406Z,2.95
2019-03-13T14:08:49.411Z,2.40
2019-03-13T14:11:19.020Z,2.25
2019-03-13T14:13:48.955Z,1.52
2019-03-13T14:16:18.629Z,3.40
2019-03-13T14:18:48.260Z,1.90
2019-03-13T14:21:17.860Z,2.95
2019-03-13T14:23:47.516Z,3.15
2019-03-13T14:26:17.145Z,2.27
2019-03-13T14:28:47.231Z,1.82
2019-03-13T14:31:17.113Z,1.70
2019-03-13T14:33:46.761Z,2.42
2019-03-13T14:36:16.440Z,3.02
2019-03-13T14:38:46.311Z,2.95
2019-03-13T14:41:15.975Z,2.10
2019-03-13T14:43:45.931Z,2.50
2019-03-13T14:46:16.375Z,2.77
2019-03-13T14:48:46.171Z,2.35
2019-03-13T14:51:15.919Z,2.02
2019-03-13T14:53:45.617Z,1.60
2019-03-13T14:56:15.347Z,1.55
2019-03-13T14:58:44.964Z,2.02
2019-03-13T15:01:14.601Z,2.17
2019-03-13T15:03:44.531Z,2.05
2019-03-13T15:06:14.071Z,2.45
2019-03-13T15:08:43.997Z,1.70
2019-03-13T15:11:13.701Z,1.60
2019-03-13T15:13:43.583Z,1.67
2019-03-13T15:16:13.415Z,2.12
2019-03-13T15:18:43.428Z,2.10
2019-03-13T15:21:13.129Z,1.80
2019-03-13T15:24:01.962Z,1.60
2019-03-13T15:26:32.606Z,1.72
2019-03-13T15:29:02.667Z,1.70
2019-03-13T15:31:34.824Z,1.65
2019-03-13T15:34:04.633Z,1.98
2019-03-13T15:36:34.310Z,1.70
2019-03-13T15:39:04.566Z,1.95
2019-03-13T15:41:34.345Z,1.50
2019-03-13T15:44:04.694Z,2.70
2019-03-13T15:46:34.407Z,1.52
2019-03-13T15:49:04.227Z,1.32
2019-03-13T15:51:38.745Z,2.02
2019-03-13T15:54:08.177Z,1.40
2019-03-13T15:56:38.155Z,1.65
2019-03-13T15:59:08.103Z,3.08
2019-03-13T16:01:37.762Z,2.35
2019-03-13T16:04:07.447Z,2.67
2019-03-13T16:06:37.456Z,1.70
2019-03-13T16:09:08.937Z,1.37
2019-03-13T16:11:38.689Z,1.67
2019-03-13T16:14:08.623Z,3.35
2019-03-13T16:16:38.285Z,1.42
2019-03-13T16:19:08.652Z,2.17
2019-03-13T16:21:39.282Z,1.80
2019-03-13T16:24:09.391Z,2.80
2019-03-13T16:26:42.855Z,1.77
2019-03-13T16:32:02.139Z,1.65
2019-03-13T16:34:38.255Z,1.47
2019-03-13T16:37:07.801Z,2.10
2019-03-13T16:39:37.804Z,1.67
2019-03-13T16:42:07.790Z,1.55
2019-03-13T16:44:37.519Z,1.98
2019-03-13T16:47:10.912Z,3.20
2019-03-13T16:49:40.451Z,1.22
2019-03-13T16:52:10.150Z,4.25
2019-03-13T16:54:39.842Z,1.95
2019-03-13T16:57:09.439Z,1.72
2019-03-13T16:59:39.039Z,2.00
2019-03-13T17:02:08.922Z,1.72
2019-03-13T17:04:38.370Z,2.80
2019-03-13T17:07:08.290Z,1.80
2019-03-13T17:09:38.540Z,2.40
2019-03-13T17:12:08.842Z,2.37
2019-03-13T17:14:38.393Z,2.75
2019-03-13T17:17:07.891Z,2.80
2019-03-13T17:19:37.548Z,2.37
2019-03-13T17:22:07.471Z,2.45
2019-03-13T17:24:37.021Z,2.47
2019-03-13T17:27:06.502Z,2.15
2019-03-13T17:29:35.991Z,2.83
2019-03-13T17:32:05.594Z,2.22
2019-03-13T17:34:35.375Z,2.75
2019-03-13T17:37:05.024Z,2.00
2019-03-13T17:39:34.673Z,3.37
2019-03-13T17:42:04.341Z,2.90
2019-03-13T17:44:33.949Z,2.75
2019-03-13T17:47:03.529Z,2.55
2019-03-13T17:49:33.131Z,2.65
2019-03-13T17:52:02.675Z,2.30
2019-03-13T17:54:32.212Z,2.70
2019-03-13T17:57:01.779Z,3.75
2019-03-13T17:59:31.325Z,2.52
2019-03-13T18:02:00.857Z,2.92
2019-03-13T18:04:30.531Z,2.72
2019-03-13T18:07:00.152Z,3.87
2019-03-13T18:09:29.635Z,3.80
2019-03-13T18:11:59.124Z,3.05
2019-03-13T18:14:31.996Z,2.45
2019-03-13T18:16:59.714Z,2.47
2019-03-13T18:19:29.206Z,3.25
2019-03-13T18:24:47.735Z,4.10
2019-03-13T18:27:17.230Z,2.50
2019-03-13T18:29:46.715Z,2.50
2019-03-13T18:32:20.565Z,1.80
2019-03-13T18:34:50.124Z,2.55
2019-03-13T18:37:19.800Z,1.80
2019-03-13T18:39:49.355Z,2.80
2019-03-13T18:42:18.954Z,3.15
2019-03-13T18:44:48.532Z,2.15
2019-03-13T18:47:17.999Z,2.52
2019-03-13T18:49:47.505Z,2.50
2019-03-13T18:52:17.100Z,3.30
2019-03-13T18:54:46.933Z,2.65
2019-03-13T18:57:18.555Z,2.55
2019-03-13T18:59:48.213Z,1.95
2019-03-13T19:02:17.953Z,2.10
2019-03-13T19:04:49.572Z,2.00
2019-03-13T19:07:18.949Z,2.35
2019-03-13T19:09:48.473Z,2.45
2019-03-13T19:12:18.270Z,1.60
2019-03-13T19:14:48.036Z,1.75
2019-03-13T19:17:17.727Z,1.90
2019-03-13T19:19:47.224Z,2.02
2019-03-13T19:22:16.961Z,2.08
2019-03-13T19:24:51.149Z,3.22
2019-03-13T19:27:20.932Z,1.98
2019-03-13T19:29:50.499Z,2.30
2019-03-13T19:32:20.167Z,2.50
2019-03-13T19:34:49.619Z,2.37
2019-03-13T19:37:19.245Z,1.95
2019-03-13T19:39:48.805Z,1.65
2019-03-13T19:42:18.312Z,2.65
2019-03-13T19:44:47.921Z,1.80
2019-03-13T19:47:17.407Z,2.77
2019-03-13T19:49:47.025Z,1.75
2019-03-13T19:52:16.584Z,2.58
2019-03-13T19:54:48.464Z,1.50
2019-03-13T19:57:17.946Z,3.08
2019-03-13T19:59:47.425Z,1.37
2019-03-13T20:02:16.911Z,2.27
2019-03-13T20:04:47.464Z,2.20
2019-03-13T20:07:17.406Z,2.30
2019-03-13T20:09:46.914Z,3.08
2019-03-13T20:12:16.326Z,2.20
2019-03-13T20:14:45.756Z,3.65
2019-03-13T20:17:16.287Z,2.30
2019-03-13T20:19:46.124Z,2.33
2019-03-13T20:22:15.555Z,2.90
2019-03-13T20:24:45.028Z,2.75
2019-03-13T20:27:14.592Z,3.72
2019-03-13T20:29:44.150Z,2.72
2019-03-13T20:32:13.766Z,4.30
2019-03-13T20:34:43.424Z,2.42
2019-03-13T20:37:13.032Z,3.50
2019-03-13T20:39:42.615Z,3.05
2019-03-13T20:42:12.125Z,2.85
2019-03-13T20:44:41.592Z,2.50
2019-03-13T20:47:11.132Z,3.60
2019-03-13T20:49:40.610Z,2.40
2019-03-13T20:52:10.170Z,3.22
2019-03-13T20:54:39.695Z,3.40
2019-03-13T20:57:09.633Z,3.80
2019-03-13T20:59:39.164Z,3.98
2019-03-13T21:02:08.862Z,5.80
2019-03-13T21:04:38.351Z,3.10
2019-03-13T21:07:08.044Z,4.05
2019-03-13T21:09:37.867Z,2.62
2019-03-13T21:12:07.773Z,3.37
2019-03-13T21:14:37.926Z,2.77
2019-03-13T21:17:07.509Z,3.17
2019-03-13T21:19:37.035Z,2.52
2019-03-13T21:22:06.769Z,2.50
2019-03-13T21:24:36.356Z,2.75
2019-03-13T21:27:06.124Z,2.85
2019-03-13T21:29:35.613Z,3.45
2019-03-13T21:32:05.088Z,2.58
2019-03-13T21:34:34.554Z,3.05
2019-03-13T21:37:04.015Z,2.40
2019-03-13T21:39:34.073Z,3.58
2019-03-13T21:42:03.576Z,2.30
2019-03-13T21:44:33.097Z,3.05
2019-03-13T21:47:02.584Z,3.65
2019-03-13T21:49:32.097Z,3.00
2019-03-13T21:52:01.620Z,4.33
2019-03-13T21:54:31.134Z,2.95
2019-03-13T22:00:03.717Z,3.20
2019-03-13T22:02:37.816Z,3.10
2019-03-13T22:05:07.333Z,4.72
2019-03-13T22:07:37.135Z,3.50
2019-03-13T22:10:07.768Z,2.70
2019-03-13T22:12:37.371Z,3.60
2019-03-13T22:15:26.253Z,3.83
2019-03-13T22:17:55.766Z,2.55
2019-03-13T22:20:25.279Z,3.37
2019-03-13T22:22:58.339Z,2.55
2019-03-13T22:25:31.464Z,2.50
2019-03-13T22:28:20.952Z,4.10
2019-03-13T22:30:50.586Z,3.00
2019-03-13T22:33:22.024Z,3.98
2019-03-13T22:36:12.358Z,3.05
2019-03-13T22:38:46.714Z,3.95
2019-03-13T22:41:16.343Z,2.60
2019-03-13T22:43:45.985Z,3.22
2019-03-13T22:46:16.870Z,4.42
2019-03-13T22:48:57.628Z,2.95
2019-03-13T22:51:20.157Z,3.62
2019-03-13T22:53:49.803Z,3.00
2019-03-13T22:56:19.675Z,3.25
2019-03-13T22:58:49.313Z,2.83
2019-03-13T23:01:19.955Z,2.80
2019-03-13T23:03:50.611Z,2.60
2019-03-13T23:06:20.321Z,4.30
2019-03-13T23:08:50.952Z,3.02
2019-03-13T23:11:20.813Z,2.52
2019-03-13T23:13:50.541Z,2.10
2019-03-13T23:16:23.551Z,2.52
2019-03-13T23:18:52.040Z,3.47
2019-03-13T23:21:22.073Z,3.87
2019-03-13T23:23:52.100Z,3.52
2019-03-13T23:26:21.727Z,2.72
2019-03-13T23:28:51.269Z,2.20
2019-03-13T23:31:21.037Z,3.08
2019-03-13T23:33:50.682Z,3.65
2019-03-13T23:36:20.260Z,4.60
2019-03-13T23:38:49.986Z,3.27
2019-03-13T23:41:19.808Z,3.58
2019-03-13T23:43:49.979Z,2.85
2019-03-13T23:46:19.733Z,2.80
2019-03-13T23:48:49.785Z,3.45
2019-03-13T23:51:19.509Z,2.62
2019-03-13T23:53:49.422Z,3.17
2019-03-13T23:56:19.045Z,2.87
2019-03-13T23:58:48.811Z,4.20
